Time;durP1;ratioP1;P1;durP2;ratioP2;P2;SDS_P1;SDS_P2;PMS_P1;PMS_P2;Temp;Humidity;BMP_temperature;BMP_pressure;BME280_temperature;BME280_humidity;BME280_pressure;Samples;Min_cycle;Max_cycle;Signal;HPM_P1;HPM_P2
2023/12/01 00:01:26;;;;;;;32.33;29.73;;;;;;;-0.10;100.00;100585.84;4946610;29;20052;-75
2023/12/01 00:03:55;;;;;;;38.67;35.65;;;;;;;-0.26;100.00;100585.59;4946216;28;20219;-76
2023/12/01 00:06:23;;;;;;;38.92;35.97;;;;;;;-0.25;100.00;100595.88;4942485;29;20047;-75
2023/12/01 00:08:50;;;;;;;31.55;29.23;;;;;;;-0.29;100.00;100594.50;4946234;28;20043;-75
2023/12/01 00:11:21;;;;;;;33.03;30.52;;;;;;;-0.02;100.00;100598.19;4923591;28;20070;-79
2023/12/01 00:14:10;;;;;;;33.38;30.65;;;;;;;-0.10;100.00;100617.16;4930018;29;20504;-79
2023/12/01 00:16:39;;;;;;;29.55;27.40;;;;;;;0.04;100.00;100608.09;4928110;29;20063;-80
2023/12/01 00:19:06;;;;;;;32.28;30.02;;;;;;;-0.30;100.00;100618.16;4924758;29;20539;-78
2023/12/01 00:21:33;;;;;;;35.28;32.67;;;;;;;-0.06;100.00;100620.31;4932140;29;20059;-79
2023/12/01 00:24:00;;;;;;;42.58;39.38;;;;;;;0.04;100.00;100628.97;4931511;28;20051;-78
2023/12/01 00:26:26;;;;;;;33.92;30.90;;;;;;;-0.03;100.00;100614.81;4929012;29;20055;-75
2023/12/01 00:28:54;;;;;;;37.17;34.35;;;;;;;-0.11;100.00;100628.59;4933528;29;20535;-79
2023/12/01 00:31:21;;;;;;;34.35;31.75;;;;;;;-0.23;100.00;100621.84;4936658;29;20051;-79
2023/12/01 00:34:01;;;;;;;35.63;32.92;;;;;;;-0.06;100.00;100615.94;4928848;29;20052;-79
2023/12/01 00:36:28;;;;;;;39.00;36.08;;;;;;;0.14;100.00;100619.31;4942642;29;20051;-79
2023/12/01 00:38:57;;;;;;;32.70;30.10;;;;;;;0.26;100.00;100620.00;4935553;29;20455;-79
2023/12/01 00:41:24;;;;;;;32.67;30.13;;;;;;;0.26;100.00;100624.41;4934686;29;20546;-76
2023/12/01 00:43:56;;;;;;;39.78;36.13;;;;;;;0.32;100.00;100611.59;4935418;29;20683;-79
2023/12/01 00:46:23;;;;;;;38.08;35.17;;;;;;;0.22;100.00;100614.22;4935236;29;20054;-76
2023/12/01 00:48:50;;;;;;;39.13;36.13;;;;;;;0.36;100.00;100618.16;4933547;29;20504;-77
2023/12/01 00:51:19;;;;;;;39.13;36.20;;;;;;;0.48;100.00;100613.59;4935979;29;20552;-76
2023/12/01 00:53:47;;;;;;;36.20;33.53;;;;;;;0.49;100.00;100620.50;4934999;29;20050;-75
2023/12/01 00:56:14;;;;;;;38.25;35.45;;;;;;;0.40;100.00;100627.38;4932946;29;20472;-76
2023/12/01 00:58:42;;;;;;;39.65;36.53;;;;;;;0.50;100.00;100622.13;4927156;29;20063;-75
2023/12/01 01:01:09;;;;;;;36.83;33.88;;;;;;;0.54;100.00;100631.31;4926818;29;20071;-75
2023/12/01 01:03:36;;;;;;;37.45;34.50;;;;;;;0.59;100.00;100626.50;4931385;29;20047;-75
2023/12/01 01:06:03;;;;;;;36.25;33.40;;;;;;;0.49;100.00;100625.72;4934078;29;20052;-76
2023/12/01 01:08:32;;;;;;;37.50;34.25;;;;;;;0.60;100.00;100622.09;4932131;29;20659;-75
2023/12/01 01:10:59;;;;;;;36.58;33.17;;;;;;;0.46;100.00;100612.94;4933170;29;20443;-79
2023/12/01 01:13:28;;;;;;;37.42;34.40;;;;;;;0.56;100.00;100621.56;4929979;29;20135;-79
2023/12/01 01:15:56;;;;;;;40.17;37.38;;;;;;;0.57;100.00;100623.19;4921036;29;20520;-79
2023/12/01 01:18:23;;;;;;;38.28;35.38;;;;;;;0.71;100.00;100610.63;4933699;29;20059;-79
2023/12/01 01:20:58;;;;;;;35.60;32.90;;;;;;;0.79;100.00;100615.97;4923943;29;20436;-79
2023/12/01 01:23:26;;;;;;;39.13;36.15;;;;;;;0.61;100.00;100608.06;4936592;29;20052;-79
2023/12/01 01:25:55;;;;;;;36.53;33.53;;;;;;;0.71;100.00;100611.47;4925526;29;20075;-79
2023/12/01 01:28:22;;;;;;;36.70;33.60;;;;;;;0.71;100.00;100611.47;4933792;29;20107;-79
2023/12/01 01:30:57;;;;;;;38.40;35.50;;;;;;;0.62;100.00;100620.16;4928862;29;20048;-79
2023/12/01 01:33:24;;;;;;;42.20;38.97;;;;;;;0.59;100.00;100599.53;4925031;29;20098;-79
2023/12/01 01:35:51;;;;;;;39.05;36.15;;;;;;;0.56;100.00;100607.66;4929960;29;20044;-79
2023/12/01 01:38:31;;;;;;;38.17;35.30;;;;;;;0.20;100.00;100605.72;4930435;29;20052;-79
2023/12/01 01:41:07;;;;;;;41.05;38.05;;;;;;;0.43;100.00;100602.78;4930313;29;20057;-79
2023/12/01 01:43:36;;;;;;;43.17;39.38;;;;;;;0.45;100.00;100596.44;4934646;29;20428;-79
2023/12/01 01:46:06;;;;;;;39.25;35.75;;;;;;;0.36;100.00;100573.75;4931968;29;20044;-79
2023/12/01 01:48:34;;;;;;;38.58;35.67;;;;;;;0.35;100.00;100576.53;4930464;29;20055;-76
2023/12/01 01:51:01;;;;;;;35.00;32.47;;;;;;;0.23;100.00;100586.31;4931685;29;20436;-75
2023/12/01 01:53:29;;;;;;;34.83;32.22;;;;;;;0.20;100.00;100573.53;4934064;29;20052;-76
2023/12/01 01:55:59;;;;;;;34.60;31.90;;;;;;;-0.03;100.00;100573.88;4933399;29;20138;-76
2023/12/01 01:58:28;;;;;;;46.50;41.38;;;;;;;-0.03;100.00;100562.59;4929236;29;20432;-75
2023/12/01 02:00:55;;;;;;;40.28;37.38;;;;;;;-0.02;100.00;100562.47;4931341;29;20115;-76
2023/12/01 02:03:31;;;;;;;39.00;35.60;;;;;;;-0.03;100.00;100565.19;4927621;29;20051;-75
2023/12/01 02:06:07;;;;;;;43.00;39.13;;;;;;;-0.28;100.00;100570.06;4931619;29;20075;-75
2023/12/01 02:08:35;;;;;;;34.05;31.55;;;;;;;-0.12;100.00;100576.47;4931085;29;20065;-76
2023/12/01 02:11:02;;;;;;;37.63;34.42;;;;;;;-0.13;100.00;100577.47;4937664;29;20056;-79
2023/12/01 02:13:32;;;;;;;41.10;37.53;;;;;;;-0.18;100.00;100571.81;4933499;29;20111;-79
2023/12/01 02:16:03;;;;;;;41.80;38.72;;;;;;;-0.07;100.00;100571.69;4932881;29;20048;-76
2023/12/01 02:18:31;;;;;;;47.97;44.17;;;;;;;-0.13;100.00;100564.41;4927595;29;20047;-79
2023/12/01 02:21:06;;;;;;;42.97;39.88;;;;;;;-0.04;100.00;100566.16;4931873;29;20163;-79
2023/12/01 02:23:34;;;;;;;36.58;33.67;;;;;;;0.01;100.00;100576.22;4932030;29;20059;-79
2023/12/01 02:26:02;;;;;;;37.10;33.50;;;;;;;-0.46;100.00;100580.34;4931323;29;20044;-80
2023/12/01 02:28:29;;;;;;;41.40;38.17;;;;;;;-0.22;100.00;100575.69;4931915;29;20083;-80
2023/12/01 02:30:57;;;;;;;45.83;42.00;;;;;;;-0.21;100.00;100570.34;4931500;29;20043;-79
2023/12/01 02:33:26;;;;;;;39.05;36.28;;;;;;;-0.22;100.00;100562.63;4920913;29;20754;-79
2023/12/01 02:35:55;;;;;;;30.70;28.45;;;;;;;-0.10;100.00;100558.91;4929275;29;20150;-80
2023/12/01 02:38:24;;;;;;;33.60;30.92;;;;;;;-0.07;100.00;100563.84;4931530;29;20134;-76
2023/12/01 02:40:52;;;;;;;32.13;29.50;;;;;;;-0.23;100.00;100556.59;4927783;29;20052;-76
2023/12/01 02:43:22;;;;;;;34.58;32.05;;;;;;;-0.28;100.00;100548.34;4940110;29;20059;-76
2023/12/01 02:45:51;;;;;;;33.15;29.80;;;;;;;-0.17;100.00;100555.22;4930473;29;20055;-76
2023/12/01 02:48:18;;;;;;;30.92;28.25;;;;;;;-0.29;100.00;100551.94;4934909;29;20524;-76
2023/12/01 02:50:46;;;;;;;34.00;31.50;;;;;;;-0.33;100.00;100556.63;4927977;29;20054;-77
2023/12/01 02:53:15;;;;;;;33.50;30.90;;;;;;;-0.38;100.00;100558.00;4929780;29;20051;-75
2023/12/01 02:55:48;;;;;;;36.25;33.20;;;;;;;-0.21;100.00;100565.13;4929562;28;20052;-76
2023/12/01 02:58:28;;;;;;;32.58;30.00;;;;;;;-0.19;100.00;100564.97;4929088;29;20047;-76
2023/12/01 03:00:57;;;;;;;35.28;32.38;;;;;;;-0.14;100.00;100558.38;4926735;29;20515;-76
2023/12/01 03:03:24;;;;;;;34.88;32.00;;;;;;;-0.44;100.00;100548.94;4929028;29;20091;-76
2023/12/01 03:05:51;;;;;;;35.15;32.45;;;;;;;-0.46;100.00;100543.84;4930289;29;20083;-76
2023/12/01 03:08:19;;;;;;;39.20;35.47;;;;;;;-0.43;100.00;100542.72;4930962;29;20131;-80
2023/12/01 03:10:48;;;;;;;36.83;33.67;;;;;;;-0.49;100.00;100538.06;4926746;29;20047;-80
2023/12/01 03:13:18;;;;;;;36.83;33.63;;;;;;;-0.47;100.00;100543.97;4929059;29;20083;-80
2023/12/01 03:15:49;;;;;;;36.03;33.22;;;;;;;-0.41;100.00;100542.59;4932363;28;20048;-76
2023/12/01 03:18:20;;;;;;;39.67;36.20;;;;;;;-0.42;100.00;100547.00;4932249;28;20139;-75
2023/12/01 03:20:47;;;;;;;34.25;31.58;;;;;;;-0.27;100.00;100543.00;4929300;29;20115;-76
2023/12/01 03:23:17;;;;;;;32.88;30.35;;;;;;;-0.37;100.00;100528.31;4929315;29;20087;-76
2023/12/01 03:25:43;;;;;;;32.28;29.48;;;;;;;-0.44;100.00;100542.88;4926897;29;20070;-76
2023/12/01 03:28:10;;;;;;;31.08;28.48;;;;;;;-0.36;100.00;100537.81;4920491;29;20052;-75
2023/12/01 03:30:37;;;;;;;32.80;30.20;;;;;;;-0.72;100.00;100530.53;4929771;29;20050;-76
2023/12/01 03:33:12;;;;;;;29.70;27.13;;;;;;;-0.75;100.00;100525.59;4931217;29;20143;-76
2023/12/01 03:35:39;;;;;;;31.45;28.92;;;;;;;-0.75;100.00;100525.59;4931669;29;20059;-76
2023/12/01 03:38:12;;;;;;;33.50;31.02;;;;;;;-0.71;100.00;100518.31;4931896;29;20082;-76
2023/12/01 03:40:39;;;;;;;31.60;29.13;;;;;;;-0.61;100.00;100518.31;4936158;29;20052;-76
2023/12/01 03:43:06;;;;;;;35.60;33.00;;;;;;;-0.56;100.00;100523.94;4929529;29;20238;-76
2023/12/01 03:45:33;;;;;;;38.28;35.33;;;;;;;-1.14;100.00;100527.34;4924584;29;20090;-76
2023/12/01 03:48:00;;;;;;;35.63;33.03;;;;;;;-0.83;100.00;100528.06;4929488;29;20496;-76
2023/12/01 03:50:29;;;;;;;33.33;30.83;;;;;;;-0.82;100.00;100515.84;4927352;29;20421;-76
2023/12/01 03:52:56;;;;;;;32.13;29.50;;;;;;;-0.86;100.00;100522.28;4927543;29;20102;-76
2023/12/01 03:55:23;;;;;;;36.25;33.20;;;;;;;-0.66;100.00;100520.53;4929014;29;20051;-76
2023/12/01 03:57:50;;;;;;;33.13;30.15;;;;;;;-0.73;100.00;100533.28;4929924;29;20051;-76
2023/12/01 04:00:22;;;;;;;32.38;29.75;;;;;;;-0.74;100.00;100516.81;4927498;29;20051;-76
2023/12/01 04:02:50;;;;;;;32.15;29.75;;;;;;;-0.71;100.00;100523.53;4921607;29;20163;-76
2023/12/01 04:05:21;;;;;;;34.40;31.77;;;;;;;-1.00;100.00;100523.50;4919949;29;20044;-76
2023/12/01 04:07:50;;;;;;;30.20;27.90;;;;;;;-1.04;100.00;100530.78;4928555;29;20054;-76
2023/12/01 04:10:20;;;;;;;27.63;25.52;;;;;;;-0.96;100.00;100530.13;4926299;29;20505;-76
2023/12/01 04:12:54;;;;;;;29.13;26.92;;;;;;;-0.89;100.00;100522.56;4929172;28;20064;-79
2023/12/01 04:15:24;;;;;;;27.52;25.42;;;;;;;-0.74;100.00;100529.03;4929103;29;20058;-76
2023/12/01 04:17:51;;;;;;;28.00;25.90;;;;;;;-0.79;100.00;100521.59;4929651;29;20075;-77
2023/12/01 04:20:25;;;;;;;33.35;30.55;;;;;;;-0.79;100.00;100533.81;4931893;29;20043;-76
2023/12/01 04:22:58;;;;;;;29.55;27.35;;;;;;;-1.10;100.00;100528.72;4924087;29;20050;-76
2023/12/01 04:25:26;;;;;;;29.38;27.17;;;;;;;-0.89;100.00;100520.78;4928133;29;20048;-76
2023/12/01 04:27:53;;;;;;;29.42;27.02;;;;;;;-0.76;100.00;100536.16;4924077;29;20051;-76
2023/12/01 04:30:22;;;;;;;25.63;23.73;;;;;;;-0.81;100.00;100527.94;4926295;29;20054;-76
2023/12/01 04:32:52;;;;;;;47.20;44.40;;;;;;;-0.80;100.00;100538.22;4931072;29;20055;-76
2023/12/01 04:35:19;;;;;;;52.80;49.58;;;;;;;-0.56;100.00;100542.19;4930477;28;20091;-76
2023/12/01 04:37:47;;;;;;;56.58;52.58;;;;;;;-0.63;100.00;100541.94;4928307;29;20052;-76
2023/12/01 04:40:15;;;;;;;54.65;51.05;;;;;;;-0.82;100.00;100537.50;4916380;29;20052;-76
2023/12/01 04:42:44;;;;;;;52.65;48.97;;;;;;;-0.82;100.00;100529.69;4929441;29;20048;-76
2023/12/01 04:45:17;;;;;;;56.25;52.35;;;;;;;-0.75;100.00;100519.56;4926098;29;20051;-76
2023/12/01 04:47:46;;;;;;;63.67;59.58;;;;;;;-0.80;100.00;100521.75;4930058;29;20047;-76
2023/12/01 04:50:16;;;;;;;58.83;55.13;;;;;;;-0.92;100.00;100514.03;4925522;29;20127;-76
2023/12/01 04:52:45;;;;;;;55.88;51.28;;;;;;;-0.75;100.00;100509.13;4924642;29;20500;-76
2023/12/01 04:55:19;;;;;;;45.28;42.38;;;;;;;-0.87;100.00;100505.00;4935847;29;20498;-76
2023/12/01 04:57:48;;;;;;;48.92;45.92;;;;;;;-1.09;100.00;100511.28;4932567;28;20064;-76
2023/12/01 05:00:20;;;;;;;49.38;45.65;;;;;;;-0.83;100.00;100507.19;4929734;29;20060;-76
2023/12/01 05:02:48;;;;;;;42.97;40.38;;;;;;;-0.74;100.00;100500.34;4926636;29;20788;-76
2023/12/01 05:05:17;;;;;;;51.45;47.05;;;;;;;-0.72;100.00;100503.63;4930710;29;20052;-76
2023/12/01 05:07:44;;;;;;;32.88;30.10;;;;;;;-0.73;100.00;100501.97;4931709;29;20064;-76
2023/12/01 05:10:15;;;;;;;29.75;27.23;;;;;;;-0.83;100.00;100507.19;4917163;29;20055;-76
2023/12/01 05:12:49;;;;;;;28.08;25.65;;;;;;;-0.61;100.00;100500.03;4925860;29;20052;-76
2023/12/01 05:15:18;;;;;;;27.35;25.15;;;;;;;-0.90;100.00;100503.50;4926811;29;20114;-76
2023/12/01 05:17:50;;;;;;;29.10;26.85;;;;;;;-0.90;100.00;100494.84;4931197;29;20099;-76
2023/12/01 05:20:18;;;;;;;24.48;22.48;;;;;;;-0.77;100.00;100482.34;4918211;29;20052;-76
2023/12/01 05:22:47;;;;;;;27.42;25.25;;;;;;;-0.88;100.00;100488.50;4929704;29;20063;-76
2023/12/01 05:25:18;;;;;;;48.80;31.17;;;;;;;-0.97;100.00;100491.94;4923906;29;20052;-76
2023/12/01 05:27:49;;;;;;;29.55;27.27;;;;;;;-0.71;100.00;100497.44;4923129;29;20103;-76
2023/12/01 05:30:18;;;;;;;39.30;35.90;;;;;;;-0.71;100.00;100502.66;4917750;29;20075;-76
2023/12/01 05:32:47;;;;;;;35.92;32.45;;;;;;;-0.83;100.00;100509.81;4924221;29;20051;-76
2023/12/01 05:35:15;;;;;;;31.73;28.73;;;;;;;-0.68;100.00;100502.38;4926424;29;20439;-76
2023/12/01 05:37:47;;;;;;;28.80;26.25;;;;;;;-0.78;100.00;100510.22;4953632;29;20051;-76
2023/12/01 05:40:16;;;;;;;31.95;29.45;;;;;;;-0.76;100.00;100507.47;4933665;29;20545;-76
2023/12/01 05:42:54;;;;;;;35.60;32.08;;;;;;;-0.75;100.00;100503.91;4921442;29;20086;-76
2023/12/01 05:45:22;;;;;;;27.77;25.88;;;;;;;-0.79;100.00;100505.94;4926452;29;20060;-76
2023/12/01 05:47:52;;;;;;;28.40;26.35;;;;;;;-0.82;100.00;100502.78;4929473;29;20052;-76
2023/12/01 05:50:23;;;;;;;32.88;29.88;;;;;;;-0.71;100.00;100494.84;4927440;29;20079;-75
2023/12/01 05:53:00;;;;;;;38.90;24.03;;;;;;;-0.57;100.00;100491.00;4930916;29;20436;-80
2023/12/01 05:55:36;;;;;;;32.35;29.25;;;;;;;-0.64;100.00;100484.66;4935102;29;20111;-80
2023/12/01 05:58:10;;;;;;;32.08;29.15;;;;;;;-0.54;100.00;100482.88;4929965;29;20040;-80
2023/12/01 06:00:38;;;;;;;35.05;32.45;;;;;;;-0.63;100.00;100463.69;4931212;29;20064;-76
2023/12/01 06:03:19;;;;;;;37.88;34.55;;;;;;;-0.58;100.00;100469.28;4927910;29;20444;-76
2023/12/01 06:05:48;;;;;;;41.00;38.08;;;;;;;-0.58;100.00;100458.84;4921562;29;20056;-76
2023/12/01 06:08:15;;;;;;;30.98;28.17;;;;;;;-0.59;100.00;100464.22;4932265;29;20060;-79
2023/12/01 06:10:50;;;;;;;29.38;27.23;;;;;;;-0.29;100.00;100466.63;4929790;29;20596;-75
2023/12/01 06:13:21;;;;;;;37.17;32.50;;;;;;;-0.10;100.00;100463.13;4933648;29;20048;-79
2023/12/01 06:15:48;;;;;;;34.00;31.55;;;;;;;-0.31;100.00;100459.88;4933870;29;20138;-75
2023/12/01 06:18:21;;;;;;;42.17;29.35;;;;;;;-0.13;100.00;100478.25;4935750;29;20048;-78
2023/12/01 06:20:48;;;;;;;30.95;28.55;;;;;;;-0.02;100.00;100476.28;4930927;29;20460;-79
2023/12/01 06:23:15;;;;;;;31.75;29.02;;;;;;;0.09;100.00;100457.03;4936354;29;20051;-78
2023/12/01 06:25:42;;;;;;;36.05;32.50;;;;;;;-0.28;100.00;100459.59;4927941;29;20617;-79
2023/12/01 06:28:10;;;;;;;31.67;29.17;;;;;;;-0.05;100.00;100467.94;4936639;29;20059;-78
2023/12/01 06:30:49;;;;;;;33.50;30.92;;;;;;;-0.06;100.00;100461.88;4940827;29;20627;-79
2023/12/01 06:33:16;;;;;;;37.67;34.22;;;;;;;0.07;100.00;100473.78;4931624;29;20062;-78
2023/12/01 06:35:44;;;;;;;32.88;30.05;;;;;;;0.21;100.00;100470.69;4925955;29;20500;-79
2023/12/01 06:38:11;;;;;;;33.88;31.38;;;;;;;0.52;100.00;100476.47;4932622;29;20106;-79
2023/12/01 06:40:39;;;;;;;38.78;33.30;;;;;;;0.80;100.00;100471.19;4917218;29;20063;-78
2023/12/01 06:43:09;;;;;;;43.33;39.47;;;;;;;0.66;100.00;100477.75;4941121;29;20486;-79
2023/12/01 06:45:37;;;;;;;34.45;30.92;;;;;;;0.66;100.00;100475.13;4930148;29;20482;-78
2023/12/01 06:48:06;;;;;;;36.33;33.25;;;;;;;0.97;100.00;100478.22;4931605;29;20055;-80
2023/12/01 06:50:33;;;;;;;38.05;35.03;;;;;;;1.05;100.00;100480.91;4922435;29;20047;-79
2023/12/01 06:53:06;;;;;;;34.45;31.08;;;;;;;1.24;100.00;100473.88;4921570;29;20123;-79
2023/12/01 06:55:43;;;;;;;36.33;33.60;;;;;;;1.42;100.00;100477.28;4931012;29;20048;-79
2023/12/01 06:58:10;;;;;;;33.35;29.90;;;;;;;1.33;100.00;100475.56;4931919;29;20531;-79
2023/12/01 07:00:38;;;;;;;33.85;30.77;;;;;;;1.46;100.00;100478.63;4933580;29;20087;-75
2023/12/01 07:03:08;;;;;;;35.88;33.05;;;;;;;1.64;100.00;100475.16;4920784;29;20051;-75
2023/12/01 07:05:37;;;;;;;38.72;35.80;;;;;;;2.13;100.00;100475.44;4923593;29;20048;-75
2023/12/01 07:08:05;;;;;;;37.25;34.42;;;;;;;1.87;100.00;100478.06;4931837;29;20059;-76
2023/12/01 07:10:32;;;;;;;35.40;32.90;;;;;;;1.68;100.00;100479.94;4928623;29;20055;-75
2023/12/01 07:12:59;;;;;;;39.92;37.05;;;;;;;1.80;100.00;100478.69;4932769;29;20055;-78
2023/12/01 07:15:27;;;;;;;38.33;35.35;;;;;;;2.13;100.00;100467.56;4920116;29;20091;-79
2023/12/01 07:17:56;;;;;;;45.45;42.45;;;;;;;2.56;100.00;100465.75;4930897;29;20589;-78
2023/12/01 07:20:33;;;;;;;47.55;44.45;;;;;;;2.25;100.00;100461.88;4928199;29;20094;-79
2023/12/01 07:23:07;;;;;;;40.20;37.15;;;;;;;2.10;100.00;100457.41;4929358;29;20051;-79
2023/12/01 07:25:36;;;;;;;36.40;33.72;;;;;;;2.51;100.00;100446.09;4923159;29;20047;-83
2023/12/01 07:28:04;;;;;;;39.22;35.97;;;;;;;4.04;100.00;100459.50;4921338;29;20044;-72
2023/12/01 07:30:31;;;;;;;43.97;40.33;;;;;;;3.52;100.00;100452.88;4931136;29;20051;-79
2023/12/01 07:33:09;;;;;;;42.80;39.15;;;;;;;2.97;100.00;100448.31;4932967;29;20425;-78
2023/12/01 07:35:38;;;;;;;40.50;37.80;;;;;;;2.91;100.00;100451.56;4869629;28;21573;-79
2023/12/01 07:38:05;;;;;;;47.33;44.15;;;;;;;2.76;100.00;100446.16;4929302;29;20055;-79
2023/12/01 07:40:32;;;;;;;41.67;38.88;;;;;;;2.90;100.00;100455.16;4937604;29;20081;-79
2023/12/01 07:42:59;;;;;;;43.47;40.65;;;;;;;3.02;100.00;100460.91;4928570;29;20047;-80
2023/12/01 07:45:26;;;;;;;43.38;40.13;;;;;;;2.81;100.00;100453.50;4932036;29;20534;-79
2023/12/01 07:47:55;;;;;;;33.60;31.13;;;;;;;3.03;100.00;100463.41;4928842;29;20052;-79
2023/12/01 07:50:23;;;;;;;34.30;31.80;;;;;;;3.03;100.00;100462.56;4929082;29;20512;-79
2023/12/01 07:52:52;;;;;;;32.33;29.90;;;;;;;2.92;100.00;100459.28;4931336;29;20047;-79
2023/12/01 07:55:20;;;;;;;34.28;31.67;;;;;;;2.76;100.00;100456.63;4928808;28;20162;-79
2023/12/01 07:57:49;;;;;;;35.60;33.00;;;;;;;2.98;100.00;100460.44;4925518;29;20050;-79
2023/12/01 08:00:17;;;;;;;45.50;41.30;;;;;;;3.17;100.00;100461.91;4927628;29;20054;-79
2023/12/01 08:02:46;;;;;;;41.20;38.40;;;;;;;3.16;100.00;100455.03;4919541;29;20060;-79
2023/12/01 08:05:14;;;;;;;50.30;45.88;;;;;;;3.05;100.00;100453.53;4919228;29;20447;-79
2023/12/01 08:07:43;;;;;;;46.17;42.65;;;;;;;3.29;100.00;100446.66;4923705;29;20060;-79
2023/12/01 08:10:33;;;;;;;45.28;41.40;;;;;;;3.27;100.00;100452.09;4924984;29;20051;-79
2023/12/01 08:13:00;;;;;;;49.53;45.60;;;;;;;3.47;100.00;100441.22;4929658;29;20096;-79
2023/12/01 08:15:32;;;;;;;44.58;41.30;;;;;;;3.46;100.00;100455.34;4933461;29;20044;-79
2023/12/01 08:17:59;;;;;;;44.50;40.78;;;;;;;3.60;100.00;100455.50;4924363;29;20056;-79
2023/12/01 08:20:28;;;;;;;43.10;40.10;;;;;;;3.80;100.00;100471.69;4928041;29;20060;-80
2023/12/01 08:22:55;;;;;;;45.22;41.65;;;;;;;4.30;100.00;100449.53;4931102;29;20051;-75
2023/12/01 08:25:30;;;;;;;38.03;35.17;;;;;;;3.93;100.00;100457.22;4927997;29;20059;-79
2023/12/01 08:27:58;;;;;;;46.05;41.40;;;;;;;4.14;100.00;100441.69;4926601;29;20095;-80
2023/12/01 08:30:26;;;;;;;39.95;36.95;;;;;;;4.18;100.00;100458.78;4924013;29;20134;-78
2023/12/01 08:32:53;;;;;;;39.95;36.45;;;;;;;4.17;100.00;100462.38;4927263;29;20078;-78
2023/12/01 08:35:21;;;;;;;35.53;33.05;;;;;;;3.89;100.00;100457.56;4927372;29;20126;-78
2023/12/01 08:37:48;;;;;;;37.28;34.58;;;;;;;3.66;100.00;100467.97;4931717;29;20111;-79
2023/12/01 08:40:31;;;;;;;38.88;36.17;;;;;;;4.16;100.00;100458.13;4928525;29;20059;-79
2023/12/01 08:43:00;;;;;;;36.05;33.55;;;;;;;3.52;100.00;100454.69;4926030;29;20047;-81
2023/12/01 08:45:27;;;;;;;38.47;35.70;;;;;;;4.18;100.00;100445.66;4928016;29;20084;-81
2023/12/01 08:47:54;;;;;;;33.55;31.35;;;;;;;3.53;100.00;100440.56;4923351;29;20052;-81
2023/12/01 08:50:46;;;;;;;36.20;33.70;;;;;;;3.63;100.00;100442.03;4930280;29;20047;-80
2023/12/01 08:53:24;;;;;;;37.22;34.50;;;;;;;3.94;100.00;100437.84;4922591;29;20056;-81
2023/12/01 08:55:51;;;;;;;32.10;29.95;;;;;;;3.86;100.00;100426.34;4928181;29;20056;-81
2023/12/01 08:58:20;;;;;;;30.50;28.40;;;;;;;3.87;100.00;100428.03;4924649;29;20427;-79
2023/12/01 09:00:47;;;;;;;35.95;33.38;;;;;;;4.26;100.00;100435.06;4938737;29;20062;-81
2023/12/01 09:03:14;;;;;;;41.42;38.63;;;;;;;4.01;100.00;100423.03;4931368;29;20512;-81
2023/12/01 09:05:41;;;;;;;36.45;33.78;;;;;;;3.79;100.00;100438.53;4923385;29;20039;-81
2023/12/01 09:08:08;;;;;;;48.38;44.85;;;;;;;4.08;100.00;100419.53;4930272;29;20058;-81
2023/12/01 09:10:38;;;;;;;39.60;37.00;;;;;;;4.22;100.00;100430.34;4927654;29;20052;-81
2023/12/01 09:13:08;;;;;;;43.08;38.80;;;;;;;3.83;100.00;100424.06;4933833;29;20051;-81
2023/12/01 09:15:37;;;;;;;43.95;41.05;;;;;;;4.22;100.00;100417.19;4932805;29;20059;-79
2023/12/01 09:18:04;;;;;;;36.35;34.03;;;;;;;4.20;100.00;100416.53;4939066;29;20051;-81
2023/12/01 09:20:31;;;;;;;45.20;41.97;;;;;;;4.07;100.00;100420.53;4928395;29;20063;-81
2023/12/01 09:22:58;;;;;;;33.70;31.10;;;;;;;4.31;100.00;100416.16;4937436;29;20051;-81
2023/12/01 09:25:27;;;;;;;30.05;27.85;;;;;;;4.30;100.00;100412.72;4926746;29;20055;-81
2023/12/01 09:27:54;;;;;;;30.60;28.50;;;;;;;4.79;100.00;100412.41;4921060;29;20095;-81
2023/12/01 09:30:33;;;;;;;28.45;26.38;;;;;;;4.26;100.00;100413.22;4924631;29;20126;-81
2023/12/01 09:33:02;;;;;;;32.35;29.70;;;;;;;4.68;100.00;100422.53;4919300;29;20054;-82
2023/12/01 09:35:29;;;;;;;30.27;27.90;;;;;;;4.16;100.00;100423.97;4931747;29;20500;-81
2023/12/01 09:37:58;;;;;;;27.00;25.15;;;;;;;4.45;100.00;100420.69;4935416;29;20083;-81
2023/12/01 09:40:25;;;;;;;27.50;25.60;;;;;;;4.33;100.00;100416.81;4923318;29;20048;-82
2023/12/01 09:42:59;;;;;;;31.15;28.83;;;;;;;4.81;100.00;100413.06;4938130;29;20129;-81
2023/12/01 09:45:27;;;;;;;28.63;26.60;;;;;;;4.73;100.00;100421.00;4933306;29;20047;-77
2023/12/01 09:47:59;;;;;;;27.95;25.85;;;;;;;5.07;100.00;100421.59;4925042;29;20062;-77
2023/12/01 09:50:28;;;;;;;28.65;26.67;;;;;;;4.70;100.00;100410.84;4926284;29;20048;-77
2023/12/01 09:52:59;;;;;;;26.88;24.88;;;;;;;4.80;100.00;100421.13;4920992;29;20850;-77
2023/12/01 09:55:27;;;;;;;26.67;24.85;;;;;;;4.35;100.00;100418.25;4930157;29;20048;-78
2023/12/01 09:57:57;;;;;;;28.00;26.05;;;;;;;4.42;100.00;100412.31;4928138;29;20508;-81
2023/12/01 10:00:25;;;;;;;28.77;26.88;;;;;;;4.29;100.00;100408.44;4943349;28;20427;-81
2023/12/01 10:02:53;;;;;;;28.10;26.27;;;;;;;4.45;100.00;100404.06;4921906;29;20135;-81
2023/12/01 10:05:37;;;;;;;28.85;27.05;;;;;;;4.86;100.00;100415.16;4937075;29;20528;-77
2023/12/01 10:08:05;;;;;;;32.60;30.40;;;;;;;5.19;100.00;100410.44;4931498;29;20058;-81
2023/12/01 10:10:40;;;;;;;32.45;29.77;;;;;;;5.30;100.00;100411.03;4937962;29;20059;-82
2023/12/01 10:13:09;;;;;;;33.72;31.13;;;;;;;5.46;100.00;100408.25;4932419;29;20057;-81
2023/12/01 10:15:40;;;;;;;29.83;27.55;;;;;;;4.75;100.00;100395.34;4926298;29;20079;-81
2023/12/01 10:18:12;;;;;;;28.52;26.42;;;;;;;4.70;100.00;100397.69;4933405;29;20055;-81
2023/12/01 10:21:02;;;;;;;26.50;24.83;;;;;;;4.58;100.00;100385.94;4936357;29;20130;-81
2023/12/01 10:23:32;;;;;;;31.05;28.50;;;;;;;4.72;100.00;100387.81;4927282;29;20936;-81
2023/12/01 10:26:03;;;;;;;29.90;28.00;;;;;;;5.64;100.00;100386.81;4925750;29;20469;-81
2023/12/01 10:28:39;;;;;;;25.20;23.75;;;;;;;5.83;100.00;100382.81;4920934;29;20101;-82
2023/12/01 10:31:16;;;;;;;29.80;28.00;;;;;;;6.43;100.00;100384.38;4933273;29;20055;-82
2023/12/01 10:33:44;;;;;;;26.27;24.58;;;;;;;5.70;100.00;100383.44;4930843;29;20044;-81
2023/12/01 10:36:12;;;;;;;25.98;24.38;;;;;;;4.70;100.00;100381.09;4937065;29;20051;-77
2023/12/01 10:38:39;;;;;;;25.83;24.10;;;;;;;5.33;100.00;100387.78;4936272;29;20053;-77
2023/12/01 10:41:09;;;;;;;28.92;26.92;;;;;;;5.75;100.00;100396.91;4932640;29;20044;-78
2023/12/01 10:43:37;;;;;;;27.10;24.55;;;;;;;5.69;100.00;100380.00;4931463;29;20059;-77
2023/12/01 10:46:06;;;;;;;25.77;24.02;;;;;;;6.67;100.00;100385.03;4938460;29;20070;-77
2023/12/01 10:48:36;;;;;;;29.23;27.33;;;;;;;8.54;100.00;100364.78;4942312;29;20130;-77
2023/12/01 10:51:07;;;;;;;27.02;24.65;;;;;;;6.36;100.00;100355.28;4932341;29;20432;-77
2023/12/01 10:53:40;;;;;;;28.77;26.98;;;;;;;7.29;100.00;100356.09;4945557;28;20067;-78
2023/12/01 10:56:13;;;;;;;26.17;24.38;;;;;;;6.19;100.00;100343.31;4924287;29;20051;-78
2023/12/01 10:58:46;;;;;;;27.35;25.60;;;;;;;6.35;100.00;100350.19;4932496;29;20052;-77
2023/12/01 11:01:14;;;;;;;26.35;24.48;;;;;;;7.49;100.00;100348.28;4937725;29;20126;-77
2023/12/01 11:03:50;;;;;;;27.33;25.35;;;;;;;7.72;100.00;100320.75;4933226;29;20054;-78
2023/12/01 11:06:28;;;;;;;24.58;23.17;;;;;;;7.43;100.00;100322.63;4918929;29;20039;-77
2023/12/01 11:09:08;;;;;;;24.45;22.95;;;;;;;7.13;100.00;100334.44;4926761;29;20103;-78
2023/12/01 11:11:47;;;;;;;26.08;24.02;;;;;;;7.94;100.00;100355.81;4940183;29;20047;-78
2023/12/01 11:14:20;;;;;;;25.30;23.70;;;;;;;7.77;100.00;100361.44;4920426;29;20066;-78
2023/12/01 11:16:48;;;;;;;25.73;24.13;;;;;;;6.81;100.00;100369.13;4918337;29;20051;-76
2023/12/01 11:19:16;;;;;;;26.40;24.90;;;;;;;6.12;100.00;100364.34;4918871;29;20063;-78